Hadar, Nebraska
Current Conditions -  °F | °C
As of 6:13 AM on Sunday 23 Nov 2014 (Local Time) from KOFK Reporting Station
Haze Haze  
Wind Chill: 42°   Ceiling: 200
Heat Index: 48°   Visibility: 3mi
Dew Point: 47°   Wind: 14mph
Humidity: 96%   Direction: 280°W
Pressure: 29.45"   Gusts: NA
Location:  42.11°N, 97.45°W
Report Text: KOFK 231213Z AUTO 28012KT 3SM BR BKN002 09/08 A2945 RMK AO2 T00890083
Loading
Personal Weather Stations






























Interactive Weather Map New forecast layout! Learn more

10-Day Weather Forecast

Advertisements
Track Severe Weather on mobile